sensor_id;sensor_type;location;lat;lon;timestamp;P1;durP1;ratioP1;P2;durP2;ratioP2
19951;SDS011;10137;49.406;19.484;2023-04-21T00:01:09;20.67;;;11.60;;
19951;SDS011;10137;49.406;19.484;2023-04-21T00:03:38;23.57;;;11.07;;
19951;SDS011;10137;49.406;19.484;2023-04-21T00:06:07;21.13;;;10.57;;
19951;SDS011;10137;49.406;19.484;2023-04-21T00:08:35;17.43;;;10.00;;
19951;SDS011;10137;49.406;19.484;2023-04-21T00:11:05;16.83;;;9.83;;
19951;SDS011;10137;49.406;19.484;2023-04-21T00:13:34;20.03;;;10.27;;
19951;SDS011;10137;49.406;19.484;2023-04-21T00:16:03;20.73;;;10.53;;
19951;SDS011;10137;49.406;19.484;2023-04-21T00:18:31;21.83;;;11.47;;
19951;SDS011;10137;49.406;19.484;2023-04-21T00:20:59;18.10;;;9.93;;
19951;SDS011;10137;49.406;19.484;2023-04-21T00:23:29;19.17;;;10.40;;
19951;SDS011;10137;49.406;19.484;2023-04-21T00:25:58;21.00;;;10.33;;
19951;SDS011;10137;49.406;19.484;2023-04-21T00:28:28;18.67;;;10.63;;
19951;SDS011;10137;49.406;19.484;2023-04-21T00:30:56;20.30;;;10.07;;
19951;SDS011;10137;49.406;19.484;2023-04-21T00:33:24;15.53;;;9.53;;
19951;SDS011;10137;49.406;19.484;2023-04-21T00:35:51;18.17;;;10.37;;
19951;SDS011;10137;49.406;19.484;2023-04-21T00:38:20;19.83;;;10.57;;
19951;SDS011;10137;49.406;19.484;2023-04-21T00:40:49;22.10;;;10.47;;
19951;SDS011;10137;49.406;19.484;2023-04-21T00:43:18;20.17;;;9.80;;
19951;SDS011;10137;49.406;19.484;2023-04-21T00:45:46;22.07;;;10.57;;
19951;SDS011;10137;49.406;19.484;2023-04-21T00:48:13;20.43;;;10.30;;
19951;SDS011;10137;49.406;19.484;2023-04-21T00:50:41;20.10;;;10.80;;
19951;SDS011;10137;49.406;19.484;2023-04-21T00:53:10;22.17;;;12.00;;
19951;SDS011;10137;49.406;19.484;2023-04-21T00:55:40;25.07;;;18.77;;
19951;SDS011;10137;49.406;19.484;2023-04-21T00:58:10;19.53;;;11.57;;
19951;SDS011;10137;49.406;19.484;2023-04-21T01:00:39;19.07;;;11.70;;
19951;SDS011;10137;49.406;19.484;2023-04-21T01:03:08;20.50;;;12.23;;
19951;SDS011;10137;49.406;19.484;2023-04-21T01:05:36;20.50;;;10.80;;
19951;SDS011;10137;49.406;19.484;2023-04-21T01:08:05;20.17;;;10.43;;
19951;SDS011;10137;49.406;19.484;2023-04-21T01:10:33;17.03;;;9.77;;
19951;SDS011;10137;49.406;19.484;2023-04-21T01:13:01;22.00;;;9.40;;
19951;SDS011;10137;49.406;19.484;2023-04-21T01:15:32;19.03;;;9.83;;
19951;SDS011;10137;49.406;19.484;2023-04-21T01:18:00;17.83;;;9.23;;
19951;SDS011;10137;49.406;19.484;2023-04-21T01:20:28;26.27;;;10.40;;
19951;SDS011;10137;49.406;19.484;2023-04-21T01:22:58;20.07;;;10.03;;
19951;SDS011;10137;49.406;19.484;2023-04-21T01:25:26;18.23;;;10.70;;
19951;SDS011;10137;49.406;19.484;2023-04-21T01:27:54;16.37;;;10.43;;
19951;SDS011;10137;49.406;19.484;2023-04-21T01:30:23;22.47;;;10.57;;
19951;SDS011;10137;49.406;19.484;2023-04-21T01:32:51;19.90;;;10.83;;
19951;SDS011;10137;49.406;19.484;2023-04-21T01:35:18;19.80;;;10.83;;
19951;SDS011;10137;49.406;19.484;2023-04-21T01:37:46;17.90;;;9.50;;
19951;SDS011;10137;49.406;19.484;2023-04-21T01:40:15;22.60;;;10.20;;
19951;SDS011;10137;49.406;19.484;2023-04-21T01:42:44;17.47;;;10.53;;
19951;SDS011;10137;49.406;19.484;2023-04-21T01:45:12;17.07;;;9.80;;
19951;SDS011;10137;49.406;19.484;2023-04-21T01:47:40;18.27;;;9.67;;
19951;SDS011;10137;49.406;19.484;2023-04-21T01:50:09;16.27;;;9.97;;
19951;SDS011;10137;49.406;19.484;2023-04-21T01:52:37;17.03;;;9.40;;
19951;SDS011;10137;49.406;19.484;2023-04-21T01:55:05;16.33;;;9.43;;
19951;SDS011;10137;49.406;19.484;2023-04-21T01:57:35;19.13;;;10.10;;
19951;SDS011;10137;49.406;19.484;2023-04-21T02:00:03;25.13;;;10.80;;
19951;SDS011;10137;49.406;19.484;2023-04-21T02:02:32;18.37;;;10.87;;
19951;SDS011;10137;49.406;19.484;2023-04-21T02:05:00;20.80;;;11.27;;
19951;SDS011;10137;49.406;19.484;2023-04-21T02:07:28;20.67;;;10.30;;
19951;SDS011;10137;49.406;19.484;2023-04-21T02:09:57;22.77;;;10.50;;
19951;SDS011;10137;49.406;19.484;2023-04-21T02:12:25;22.47;;;11.00;;
19951;SDS011;10137;49.406;19.484;2023-04-21T02:14:55;23.83;;;16.73;;
19951;SDS011;10137;49.406;19.484;2023-04-21T02:17:23;27.43;;;17.23;;
19951;SDS011;10137;49.406;19.484;2023-04-21T02:19:51;18.77;;;12.00;;
19951;SDS011;10137;49.406;19.484;2023-04-21T02:22:19;20.80;;;11.50;;
19951;SDS011;10137;49.406;19.484;2023-04-21T02:24:48;19.77;;;9.47;;
19951;SDS011;10137;49.406;19.484;2023-04-21T02:27:17;22.13;;;9.70;;
19951;SDS011;10137;49.406;19.484;2023-04-21T02:29:45;17.03;;;9.00;;
19951;SDS011;10137;49.406;19.484;2023-04-21T02:32:14;21.77;;;9.07;;
19951;SDS011;10137;49.406;19.484;2023-04-21T02:34:43;17.00;;;9.10;;
19951;SDS011;10137;49.406;19.484;2023-04-21T02:37:11;18.30;;;10.17;;
19951;SDS011;10137;49.406;19.484;2023-04-21T02:39:39;16.37;;;9.20;;
19951;SDS011;10137;49.406;19.484;2023-04-21T02:42:07;18.33;;;9.63;;
19951;SDS011;10137;49.406;19.484;2023-04-21T02:44:36;18.27;;;9.70;;
19951;SDS011;10137;49.406;19.484;2023-04-21T02:47:04;17.27;;;10.30;;
19951;SDS011;10137;49.406;19.484;2023-04-21T02:49:34;21.50;;;10.27;;
19951;SDS011;10137;49.406;19.484;2023-04-21T02:52:07;18.47;;;11.50;;
19951;SDS011;10137;49.406;19.484;2023-04-21T02:54:36;15.60;;;9.97;;
19951;SDS011;10137;49.406;19.484;2023-04-21T02:57:04;22.90;;;11.87;;
19951;SDS011;10137;49.406;19.484;2023-04-21T02:59:32;17.73;;;10.70;;
19951;SDS011;10137;49.406;19.484;2023-04-21T03:02:00;19.33;;;10.17;;
19951;SDS011;10137;49.406;19.484;2023-04-21T03:04:29;20.30;;;10.07;;
19951;SDS011;10137;49.406;19.484;2023-04-21T03:06:59;15.00;;;9.70;;
19951;SDS011;10137;49.406;19.484;2023-04-21T03:09:27;17.77;;;10.27;;
19951;SDS011;10137;49.406;19.484;2023-04-21T03:11:56;18.60;;;9.07;;
19951;SDS011;10137;49.406;19.484;2023-04-21T03:14:24;17.30;;;9.97;;
19951;SDS011;10137;49.406;19.484;2023-04-21T03:16:52;17.40;;;8.87;;
19951;SDS011;10137;49.406;19.484;2023-04-21T03:19:20;13.73;;;8.90;;
19951;SDS011;10137;49.406;19.484;2023-04-21T03:21:48;16.63;;;9.90;;
19951;SDS011;10137;49.406;19.484;2023-04-21T03:24:18;20.43;;;10.40;;
19951;SDS011;10137;49.406;19.484;2023-04-21T03:26:46;21.13;;;11.13;;
19951;SDS011;10137;49.406;19.484;2023-04-21T03:29:14;21.60;;;10.67;;
19951;SDS011;10137;49.406;19.484;2023-04-21T03:31:43;20.43;;;11.47;;
19951;SDS011;10137;49.406;19.484;2023-04-21T03:34:11;16.30;;;9.53;;
19951;SDS011;10137;49.406;19.484;2023-04-21T03:36:41;22.07;;;10.97;;
19951;SDS011;10137;49.406;19.484;2023-04-21T03:39:13;18.67;;;11.07;;
19951;SDS011;10137;49.406;19.484;2023-04-21T03:41:43;24.00;;;11.90;;
19951;SDS011;10137;49.406;19.484;2023-04-21T03:44:11;27.80;;;12.10;;
19951;SDS011;10137;49.406;19.484;2023-04-21T03:46:42;20.13;;;11.20;;
19951;SDS011;10137;49.406;19.484;2023-04-21T03:49:10;24.47;;;12.40;;
19951;SDS011;10137;49.406;19.484;2023-04-21T03:51:38;32.93;;;15.37;;
19951;SDS011;10137;49.406;19.484;2023-04-21T03:54:07;27.13;;;13.20;;
19951;SDS011;10137;49.406;19.484;2023-04-21T03:56:35;22.07;;;12.07;;
19951;SDS011;10137;49.406;19.484;2023-04-21T03:59:04;31.40;;;13.13;;
19951;SDS011;10137;49.406;19.484;2023-04-21T04:01:32;18.60;;;10.77;;
19951;SDS011;10137;49.406;19.484;2023-04-21T04:04:01;25.00;;;11.17;;
19951;SDS011;10137;49.406;19.484;2023-04-21T04:06:29;17.83;;;10.57;;
19951;SDS011;10137;49.406;19.484;2023-04-21T04:08:58;23.20;;;13.13;;
19951;SDS011;10137;49.406;19.484;2023-04-21T04:11:28;15.67;;;9.87;;
19951;SDS011;10137;49.406;19.484;2023-04-21T04:13:56;22.20;;;11.53;;
19951;SDS011;10137;49.406;19.484;2023-04-21T04:16:24;18.13;;;10.90;;
19951;SDS011;10137;49.406;19.484;2023-04-21T04:18:54;21.70;;;10.93;;
19951;SDS011;10137;49.406;19.484;2023-04-21T04:21:22;20.27;;;11.97;;
19951;SDS011;10137;49.406;19.484;2023-04-21T04:23:51;23.63;;;12.67;;
19951;SDS011;10137;49.406;19.484;2023-04-21T04:26:22;28.67;;;18.13;;
19951;SDS011;10137;49.406;19.484;2023-04-21T04:28:51;22.57;;;13.07;;
19951;SDS011;10137;49.406;19.484;2023-04-21T04:31:21;25.23;;;13.43;;
19951;SDS011;10137;49.406;19.484;2023-04-21T04:33:55;24.70;;;11.83;;
19951;SDS011;10137;49.406;19.484;2023-04-21T04:36:25;24.43;;;13.40;;
19951;SDS011;10137;49.406;19.484;2023-04-21T04:38:54;23.60;;;12.77;;
19951;SDS011;10137;49.406;19.484;2023-04-21T04:41:23;29.00;;;14.40;;
19951;SDS011;10137;49.406;19.484;2023-04-21T04:43:51;29.93;;;13.87;;
19951;SDS011;10137;49.406;19.484;2023-04-21T04:46:19;27.83;;;13.97;;
19951;SDS011;10137;49.406;19.484;2023-04-21T04:48:47;27.57;;;13.50;;
19951;SDS011;10137;49.406;19.484;2023-04-21T04:51:18;24.10;;;12.43;;
19951;SDS011;10137;49.406;19.484;2023-04-21T04:53:48;25.50;;;12.53;;
19951;SDS011;10137;49.406;19.484;2023-04-21T04:56:16;26.20;;;14.37;;
19951;SDS011;10137;49.406;19.484;2023-04-21T04:58:44;24.20;;;13.80;;
19951;SDS011;10137;49.406;19.484;2023-04-21T05:01:12;25.77;;;13.10;;
19951;SDS011;10137;49.406;19.484;2023-04-21T05:03:42;26.27;;;13.17;;
19951;SDS011;10137;49.406;19.484;2023-04-21T05:06:11;24.13;;;13.03;;
19951;SDS011;10137;49.406;19.484;2023-04-21T05:08:43;31.07;;;13.57;;
19951;SDS011;10137;49.406;19.484;2023-04-21T05:11:11;23.90;;;12.90;;
19951;SDS011;10137;49.406;19.484;2023-04-21T05:13:39;26.33;;;14.30;;
19951;SDS011;10137;49.406;19.484;2023-04-21T05:16:08;30.47;;;14.33;;
19951;SDS011;10137;49.406;19.484;2023-04-21T05:18:36;29.90;;;14.10;;
19951;SDS011;10137;49.406;19.484;2023-04-21T05:21:04;29.90;;;14.47;;
19951;SDS011;10137;49.406;19.484;2023-04-21T05:23:33;37.17;;;14.77;;
19951;SDS011;10137;49.406;19.484;2023-04-21T05:26:02;30.57;;;15.30;;
19951;SDS011;10137;49.406;19.484;2023-04-21T05:28:30;31.93;;;16.53;;
19951;SDS011;10137;49.406;19.484;2023-04-21T05:31:00;33.07;;;16.70;;
19951;SDS011;10137;49.406;19.484;2023-04-21T05:33:28;31.23;;;15.00;;
19951;SDS011;10137;49.406;19.484;2023-04-21T05:35:57;30.23;;;14.47;;
19951;SDS011;10137;49.406;19.484;2023-04-21T05:38:25;27.33;;;14.37;;
19951;SDS011;10137;49.406;19.484;2023-04-21T05:40:53;31.17;;;13.43;;
19951;SDS011;10137;49.406;19.484;2023-04-21T05:43:23;28.73;;;14.80;;
19951;SDS011;10137;49.406;19.484;2023-04-21T05:45:51;33.80;;;14.70;;
19951;SDS011;10137;49.406;19.484;2023-04-21T05:48:19;42.33;;;15.23;;
19951;SDS011;10137;49.406;19.484;2023-04-21T05:50:50;28.57;;;14.20;;
19951;SDS011;10137;49.406;19.484;2023-04-21T05:53:19;32.73;;;14.90;;
19951;SDS011;10137;49.406;19.484;2023-04-21T05:55:48;34.27;;;14.40;;
19951;SDS011;10137;49.406;19.484;2023-04-21T05:58:17;26.90;;;14.20;;
19951;SDS011;10137;49.406;19.484;2023-04-21T06:00:47;31.70;;;15.27;;
19951;SDS011;10137;49.406;19.484;2023-04-21T06:03:14;27.60;;;15.27;;
19951;SDS011;10137;49.406;19.484;2023-04-21T06:05:42;35.00;;;16.50;;
19951;SDS011;10137;49.406;19.484;2023-04-21T06:08:14;26.00;;;15.03;;
19951;SDS011;10137;49.406;19.484;2023-04-21T06:10:43;33.60;;;14.27;;
19951;SDS011;10137;49.406;19.484;2023-04-21T06:13:12;26.13;;;14.03;;
19951;SDS011;10137;49.406;19.484;2023-04-21T06:15:40;30.73;;;14.40;;
19951;SDS011;10137;49.406;19.484;2023-04-21T06:18:10;21.60;;;14.33;;
19951;SDS011;10137;49.406;19.484;2023-04-21T06:20:39;27.07;;;13.83;;
19951;SDS011;10137;49.406;19.484;2023-04-21T06:23:07;26.47;;;13.57;;
19951;SDS011;10137;49.406;19.484;2023-04-21T06:25:36;30.07;;;13.13;;
19951;SDS011;10137;49.406;19.484;2023-04-21T06:28:04;26.70;;;12.27;;
19951;SDS011;10137;49.406;19.484;2023-04-21T06:30:33;27.53;;;12.73;;
19951;SDS011;10137;49.406;19.484;2023-04-21T06:33:01;31.33;;;13.30;;
19951;SDS011;10137;49.406;19.484;2023-04-21T06:35:30;23.30;;;11.77;;
19951;SDS011;10137;49.406;19.484;2023-04-21T06:37:58;28.10;;;12.43;;
19951;SDS011;10137;49.406;19.484;2023-04-21T06:40:26;18.70;;;11.73;;
19951;SDS011;10137;49.406;19.484;2023-04-21T06:42:55;21.77;;;10.70;;
19951;SDS011;10137;49.406;19.484;2023-04-21T06:45:23;19.77;;;8.67;;
19951;SDS011;10137;49.406;19.484;2023-04-21T06:47:51;15.17;;;8.93;;
19951;SDS011;10137;49.406;19.484;2023-04-21T06:50:19;16.07;;;8.83;;
19951;SDS011;10137;49.406;19.484;2023-04-21T06:52:49;20.03;;;9.47;;
19951;SDS011;10137;49.406;19.484;2023-04-21T06:55:17;15.40;;;9.07;;
19951;SDS011;10137;49.406;19.484;2023-04-21T06:57:45;18.00;;;9.00;;
19951;SDS011;10137;49.406;19.484;2023-04-21T07:00:13;20.53;;;8.57;;
19951;SDS011;10137;49.406;19.484;2023-04-21T07:02:41;16.03;;;9.00;;
19951;SDS011;10137;49.406;19.484;2023-04-21T07:05:10;19.20;;;8.50;;
19951;SDS011;10137;49.406;19.484;2023-04-21T07:07:39;21.97;;;8.80;;
19951;SDS011;10137;49.406;19.484;2023-04-21T07:10:09;20.70;;;7.60;;
19951;SDS011;10137;49.406;19.484;2023-04-21T07:12:37;28.47;;;10.30;;
19951;SDS011;10137;49.406;19.484;2023-04-21T07:15:06;21.57;;;11.03;;
19951;SDS011;10137;49.406;19.484;2023-04-21T07:17:35;21.93;;;11.47;;
19951;SDS011;10137;49.406;19.484;2023-04-21T07:20:03;18.90;;;11.10;;
19951;SDS011;10137;49.406;19.484;2023-04-21T07:22:32;18.00;;;10.83;;
19951;SDS011;10137;49.406;19.484;2023-04-21T07:25:01;18.17;;;10.37;;
19951;SDS011;10137;49.406;19.484;2023-04-21T07:27:33;16.27;;;9.10;;
19951;SDS011;10137;49.406;19.484;2023-04-21T07:30:02;17.53;;;9.60;;
19951;SDS011;10137;49.406;19.484;2023-04-21T07:32:30;17.93;;;8.93;;
19951;SDS011;10137;49.406;19.484;2023-04-21T07:34:57;14.10;;;9.20;;
19951;SDS011;10137;49.406;19.484;2023-04-21T07:37:27;17.23;;;9.63;;
19951;SDS011;10137;49.406;19.484;2023-04-21T07:39:55;15.47;;;9.20;;
19951;SDS011;10137;49.406;19.484;2023-04-21T07:42:22;14.90;;;9.50;;
19951;SDS011;10137;49.406;19.484;2023-04-21T07:44:53;16.97;;;9.30;;
19951;SDS011;10137;49.406;19.484;2023-04-21T07:47:23;18.77;;;9.73;;
19951;SDS011;10137;49.406;19.484;2023-04-21T07:49:51;18.67;;;9.50;;
19951;SDS011;10137;49.406;19.484;2023-04-21T07:52:19;15.93;;;8.40;;
19951;SDS011;10137;49.406;19.484;2023-04-21T07:54:47;20.77;;;9.13;;
19951;SDS011;10137;49.406;19.484;2023-04-21T07:57:15;17.37;;;9.37;;
19951;SDS011;10137;49.406;19.484;2023-04-21T07:59:44;16.00;;;9.10;;
19951;SDS011;10137;49.406;19.484;2023-04-21T08:02:13;24.00;;;9.97;;
19951;SDS011;10137;49.406;19.484;2023-04-21T08:04:41;20.20;;;9.20;;
19951;SDS011;10137;49.406;19.484;2023-04-21T08:07:09;13.30;;;8.57;;
19951;SDS011;10137;49.406;19.484;2023-04-21T08:09:40;15.33;;;8.73;;
19951;SDS011;10137;49.406;19.484;2023-04-21T08:12:09;15.00;;;7.70;;
19951;SDS011;10137;49.406;19.484;2023-04-21T08:14:37;20.07;;;6.70;;
19951;SDS011;10137;49.406;19.484;2023-04-21T08:17:06;13.87;;;5.53;;
19951;SDS011;10137;49.406;19.484;2023-04-21T08:19:39;10.90;;;4.40;;
19951;SDS011;10137;49.406;19.484;2023-04-21T08:22:07;11.70;;;4.97;;
19951;SDS011;10137;49.406;19.484;2023-04-21T08:24:35;13.00;;;4.77;;
19951;SDS011;10137;49.406;19.484;2023-04-21T08:27:03;14.10;;;4.63;;
19951;SDS011;10137;49.406;19.484;2023-04-21T08:29:31;9.17;;;5.40;;
19951;SDS011;10137;49.406;19.484;2023-04-21T08:32:00;11.27;;;4.33;;
19951;SDS011;10137;49.406;19.484;2023-04-21T08:34:28;15.17;;;4.60;;
19951;SDS011;10137;49.406;19.484;2023-04-21T08:36:57;14.80;;;5.37;;
19951;SDS011;10137;49.406;19.484;2023-04-21T08:39:26;9.20;;;4.57;;
19951;SDS011;10137;49.406;19.484;2023-04-21T08:41:55;20.53;;;5.40;;
19951;SDS011;10137;49.406;19.484;2023-04-21T08:44:24;9.27;;;4.40;;
19951;SDS011;10137;49.406;19.484;2023-04-21T08:46:52;10.53;;;5.07;;
19951;SDS011;10137;49.406;19.484;2023-04-21T08:49:22;13.00;;;4.70;;
19951;SDS011;10137;49.406;19.484;2023-04-21T08:51:53;12.07;;;4.87;;
19951;SDS011;10137;49.406;19.484;2023-04-21T08:54:21;13.23;;;5.30;;
19951;SDS011;10137;49.406;19.484;2023-04-21T08:56:50;25.03;;;5.23;;
19951;SDS011;10137;49.406;19.484;2023-04-21T08:59:21;13.77;;;4.97;;
19951;SDS011;10137;49.406;19.484;2023-04-21T09:04:40;9.70;;;5.03;;
19951;SDS011;10137;49.406;19.484;2023-04-21T09:07:09;11.00;;;4.80;;
19951;SDS011;10137;49.406;19.484;2023-04-21T09:12:22;13.80;;;7.90;;
19951;SDS011;10137;49.406;19.484;2023-04-21T09:14:51;9.23;;;4.73;;
19951;SDS011;10137;49.406;19.484;2023-04-21T09:17:20;10.30;;;4.40;;
19951;SDS011;10137;49.406;19.484;2023-04-21T09:19:52;18.07;;;4.73;;
19951;SDS011;10137;49.406;19.484;2023-04-21T09:22:20;12.00;;;4.80;;
19951;SDS011;10137;49.406;19.484;2023-04-21T09:24:57;11.47;;;5.60;;
19951;SDS011;10137;49.406;19.484;2023-04-21T09:27:26;16.80;;;5.03;;
19951;SDS011;10137;49.406;19.484;2023-04-21T09:29:55;10.80;;;4.00;;
19951;SDS011;10137;49.406;19.484;2023-04-21T09:32:34;11.80;;;4.60;;
19951;SDS011;10137;49.406;19.484;2023-04-21T09:35:01;12.87;;;4.50;;
19951;SDS011;10137;49.406;19.484;2023-04-21T09:37:31;15.00;;;4.50;;
19951;SDS011;10137;49.406;19.484;2023-04-21T09:40:02;16.23;;;5.13;;
19951;SDS011;10137;49.406;19.484;2023-04-21T09:42:29;13.77;;;4.90;;
19951;SDS011;10137;49.406;19.484;2023-04-21T09:44:57;14.10;;;4.77;;
19951;SDS011;10137;49.406;19.484;2023-04-21T09:47:26;11.77;;;5.10;;
19951;SDS011;10137;49.406;19.484;2023-04-21T09:49:56;9.43;;;4.60;;
19951;SDS011;10137;49.406;19.484;2023-04-21T09:52:25;9.43;;;4.47;;
19951;SDS011;10137;49.406;19.484;2023-04-21T09:54:56;5.73;;;3.73;;
19951;SDS011;10137;49.406;19.484;2023-04-21T09:57:30;8.83;;;4.27;;
19951;SDS011;10137;49.406;19.484;2023-04-21T10:00:00;9.40;;;4.87;;
19951;SDS011;10137;49.406;19.484;2023-04-21T10:02:31;10.90;;;4.90;;
19951;SDS011;10137;49.406;19.484;2023-04-21T10:05:02;11.17;;;4.73;;
19951;SDS011;10137;49.406;19.484;2023-04-21T10:07:32;15.90;;;4.90;;
19951;SDS011;10137;49.406;19.484;2023-04-21T10:10:00;10.37;;;5.53;;
19951;SDS011;10137;49.406;19.484;2023-04-21T10:12:34;15.23;;;6.47;;
19951;SDS011;10137;49.406;19.484;2023-04-21T10:15:03;17.10;;;4.87;;
19951;SDS011;10137;49.406;19.484;2023-04-21T10:17:33;12.33;;;5.73;;
19951;SDS011;10137;49.406;19.484;2023-04-21T10:20:05;11.40;;;5.13;;
19951;SDS011;10137;49.406;19.484;2023-04-21T10:22:35;9.03;;;4.00;;
19951;SDS011;10137;49.406;19.484;2023-04-21T10:25:07;8.63;;;4.90;;
19951;SDS011;10137;49.406;19.484;2023-04-21T10:27:40;10.83;;;4.50;;
19951;SDS011;10137;49.406;19.484;2023-04-21T10:30:17;11.53;;;4.43;;
19951;SDS011;10137;49.406;19.484;2023-04-21T10:32:46;12.60;;;4.00;;
19951;SDS011;10137;49.406;19.484;2023-04-21T10:35:13;12.13;;;4.17;;
19951;SDS011;10137;49.406;19.484;2023-04-21T10:37:43;7.77;;;4.17;;
19951;SDS011;10137;49.406;19.484;2023-04-21T10:43:11;10.30;;;4.20;;
19951;SDS011;10137;49.406;19.484;2023-04-21T10:49:06;6.77;;;4.30;;
19951;SDS011;10137;49.406;19.484;2023-04-21T10:54:29;7.50;;;4.23;;
19951;SDS011;10137;49.406;19.484;2023-04-21T10:57:07;8.03;;;4.27;;
19951;SDS011;10137;49.406;19.484;2023-04-21T10:59:42;12.97;;;4.40;;
19951;SDS011;10137;49.406;19.484;2023-04-21T11:02:13;13.20;;;4.63;;
19951;SDS011;10137;49.406;19.484;2023-04-21T11:04:41;11.57;;;5.00;;
19951;SDS011;10137;49.406;19.484;2023-04-21T11:07:15;9.30;;;5.10;;
19951;SDS011;10137;49.406;19.484;2023-04-21T11:09:48;11.27;;;6.03;;
19951;SDS011;10137;49.406;19.484;2023-04-21T11:12:26;10.57;;;5.50;;
19951;SDS011;10137;49.406;19.484;2023-04-21T11:15:01;11.57;;;5.37;;
19951;SDS011;10137;49.406;19.484;2023-04-21T11:17:34;7.57;;;4.53;;
19951;SDS011;10137;49.406;19.484;2023-04-21T11:20:05;10.47;;;5.50;;
19951;SDS011;10137;49.406;19.484;2023-04-21T11:22:35;17.23;;;8.80;;
19951;SDS011;10137;49.406;19.484;2023-04-21T11:25:14;12.43;;;6.77;;
19951;SDS011;10137;49.406;19.484;2023-04-21T11:27:52;7.57;;;4.97;;
19951;SDS011;10137;49.406;19.484;2023-04-21T11:30:32;11.17;;;4.80;;
19951;SDS011;10137;49.406;19.484;2023-04-21T11:33:00;10.87;;;5.03;;
19951;SDS011;10137;49.406;19.484;2023-04-21T11:35:30;6.60;;;4.37;;
19951;SDS011;10137;49.406;19.484;2023-04-21T11:38:03;9.67;;;5.30;;
19951;SDS011;10137;49.406;19.484;2023-04-21T11:40:45;11.33;;;5.10;;
19951;SDS011;10137;49.406;19.484;2023-04-21T11:43:14;9.57;;;4.60;;
19951;SDS011;10137;49.406;19.484;2023-04-21T11:45:43;16.57;;;5.00;;
19951;SDS011;10137;49.406;19.484;2023-04-21T11:48:14;8.70;;;5.20;;
19951;SDS011;10137;49.406;19.484;2023-04-21T11:50:45;8.33;;;4.30;;
19951;SDS011;10137;49.406;19.484;2023-04-21T11:53:14;12.47;;;4.67;;
19951;SDS011;10137;49.406;19.484;2023-04-21T11:55:43;7.17;;;4.63;;
19951;SDS011;10137;49.406;19.484;2023-04-21T11:58:12;6.47;;;4.37;;
19951;SDS011;10137;49.406;19.484;2023-04-21T12:00:44;13.47;;;4.87;;
19951;SDS011;10137;49.406;19.484;2023-04-21T12:03:12;8.93;;;4.50;;
19951;SDS011;10137;49.406;19.484;2023-04-21T12:05:41;11.17;;;4.30;;
19951;SDS011;10137;49.406;19.484;2023-04-21T12:08:12;16.70;;;4.67;;
19951;SDS011;10137;49.406;19.484;2023-04-21T12:10:43;10.40;;;4.00;;
19951;SDS011;10137;49.406;19.484;2023-04-21T12:13:12;9.63;;;4.07;;
19951;SDS011;10137;49.406;19.484;2023-04-21T12:15:46;9.70;;;4.77;;
19951;SDS011;10137;49.406;19.484;2023-04-21T12:18:16;10.47;;;4.97;;
19951;SDS011;10137;49.406;19.484;2023-04-21T12:20:48;8.17;;;4.37;;
19951;SDS011;10137;49.406;19.484;2023-04-21T12:23:17;7.07;;;4.13;;
19951;SDS011;10137;49.406;19.484;2023-04-21T12:25:45;8.57;;;4.40;;
19951;SDS011;10137;49.406;19.484;2023-04-21T12:28:14;11.57;;;5.20;;
19951;SDS011;10137;49.406;19.484;2023-04-21T12:30:45;7.37;;;4.77;;
19951;SDS011;10137;49.406;19.484;2023-04-21T12:33:14;9.13;;;5.00;;
19951;SDS011;10137;49.406;19.484;2023-04-21T12:35:40;10.10;;;4.40;;
19951;SDS011;10137;49.406;19.484;2023-04-21T12:38:09;12.03;;;4.97;;
19951;SDS011;10137;49.406;19.484;2023-04-21T12:40:37;9.57;;;4.07;;
19951;SDS011;10137;49.406;19.484;2023-04-21T12:43:05;8.90;;;4.60;;
19951;SDS011;10137;49.406;19.484;2023-04-21T12:45:35;9.40;;;4.30;;
19951;SDS011;10137;49.406;19.484;2023-04-21T12:48:11;7.30;;;4.13;;
19951;SDS011;10137;49.406;19.484;2023-04-21T12:50:42;8.13;;;3.93;;
19951;SDS011;10137;49.406;19.484;2023-04-21T12:53:12;11.00;;;4.80;;
19951;SDS011;10137;49.406;19.484;2023-04-21T12:55:41;7.23;;;3.80;;
19951;SDS011;10137;49.406;19.484;2023-04-21T12:58:10;8.40;;;4.13;;
19951;SDS011;10137;49.406;19.484;2023-04-21T13:00:40;6.90;;;4.47;;
19951;SDS011;10137;49.406;19.484;2023-04-21T13:03:10;9.30;;;4.03;;
19951;SDS011;10137;49.406;19.484;2023-04-21T13:05:41;13.83;;;6.60;;
19951;SDS011;10137;49.406;19.484;2023-04-21T13:08:09;12.00;;;5.33;;
19951;SDS011;10137;49.406;19.484;2023-04-21T13:10:38;15.80;;;5.13;;
19951;SDS011;10137;49.406;19.484;2023-04-21T13:13:06;10.90;;;6.30;;
19951;SDS011;10137;49.406;19.484;2023-04-21T13:15:34;13.07;;;5.73;;
19951;SDS011;10137;49.406;19.484;2023-04-21T13:18:02;14.00;;;7.00;;
19951;SDS011;10137;49.406;19.484;2023-04-21T13:20:32;6.73;;;4.87;;
19951;SDS011;10137;49.406;19.484;2023-04-21T13:22:59;12.57;;;5.20;;
19951;SDS011;10137;49.406;19.484;2023-04-21T13:25:28;14.73;;;5.97;;
19951;SDS011;10137;49.406;19.484;2023-04-21T13:27:56;10.93;;;4.63;;
19951;SDS011;10137;49.406;19.484;2023-04-21T13:30:24;9.10;;;5.13;;
19951;SDS011;10137;49.406;19.484;2023-04-21T13:32:52;10.93;;;5.43;;
19951;SDS011;10137;49.406;19.484;2023-04-21T13:35:20;7.77;;;4.70;;
19951;SDS011;10137;49.406;19.484;2023-04-21T13:37:50;35.33;;;5.87;;
19951;SDS011;10137;49.406;19.484;2023-04-21T13:40:19;9.13;;;5.40;;
19951;SDS011;10137;49.406;19.484;2023-04-21T13:42:51;9.20;;;5.17;;
19951;SDS011;10137;49.406;19.484;2023-04-21T13:45:19;12.13;;;5.23;;
19951;SDS011;10137;49.406;19.484;2023-04-21T13:47:50;10.03;;;4.93;;
19951;SDS011;10137;49.406;19.484;2023-04-21T13:50:19;13.57;;;4.83;;
19951;SDS011;10137;49.406;19.484;2023-04-21T13:52:48;6.03;;;4.40;;
19951;SDS011;10137;49.406;19.484;2023-04-21T13:55:18;10.80;;;5.17;;
19951;SDS011;10137;49.406;19.484;2023-04-21T13:57:50;9.13;;;4.30;;
19951;SDS011;10137;49.406;19.484;2023-04-21T14:00:21;10.97;;;4.20;;
19951;SDS011;10137;49.406;19.484;2023-04-21T14:02:50;13.07;;;5.00;;
19951;SDS011;10137;49.406;19.484;2023-04-21T14:05:21;17.43;;;4.50;;
19951;SDS011;10137;49.406;19.484;2023-04-21T14:07:50;8.20;;;4.57;;
19951;SDS011;10137;49.406;19.484;2023-04-21T14:10:19;13.27;;;4.77;;
19951;SDS011;10137;49.406;19.484;2023-04-21T14:12:47;9.13;;;4.43;;
19951;SDS011;10137;49.406;19.484;2023-04-21T14:15:14;10.07;;;4.30;;
19951;SDS011;10137;49.406;19.484;2023-04-21T14:17:42;9.37;;;4.30;;
19951;SDS011;10137;49.406;19.484;2023-04-21T14:20:11;8.27;;;4.30;;
19951;SDS011;10137;49.406;19.484;2023-04-21T14:22:39;7.73;;;4.50;;
19951;SDS011;10137;49.406;19.484;2023-04-21T14:25:08;10.47;;;4.33;;
19951;SDS011;10137;49.406;19.484;2023-04-21T14:27:37;12.90;;;4.57;;
19951;SDS011;10137;49.406;19.484;2023-04-21T14:30:06;8.67;;;4.30;;
19951;SDS011;10137;49.406;19.484;2023-04-21T14:32:35;7.47;;;3.93;;
19951;SDS011;10137;49.406;19.484;2023-04-21T14:35:10;7.93;;;4.80;;
19951;SDS011;10137;49.406;19.484;2023-04-21T14:37:36;5.03;;;4.10;;
19951;SDS011;10137;49.406;19.484;2023-04-21T14:40:04;4.97;;;3.90;;
19951;SDS011;10137;49.406;19.484;2023-04-21T14:42:34;8.73;;;4.50;;
19951;SDS011;10137;49.406;19.484;2023-04-21T14:45:02;23.17;;;5.20;;